createdAt,value
2017-06-15T00:00:54.808Z,12
2017-06-15T00:01:55.499Z,12
2017-06-15T00:02:56.173Z,12
2017-06-15T00:03:57.192Z,12
2017-06-15T00:04:57.887Z,12
2017-06-15T00:05:58.852Z,12
2017-06-15T00:06:59.527Z,12
2017-06-15T00:08:00.238Z,12
2017-06-15T00:09:00.929Z,12
2017-06-15T00:10:01.615Z,12
2017-06-15T00:11:02.351Z,12
2017-06-15T00:12:03.286Z,12
2017-06-15T00:13:04.028Z,12
2017-06-15T00:14:04.742Z,12
2017-06-15T00:15:05.416Z,12
2017-06-15T00:16:06.191Z,12
2017-06-15T00:17:06.850Z,12
2017-06-15T00:18:07.894Z,12
2017-06-15T00:19:08.575Z,12
2017-06-15T00:20:09.329Z,12
2017-06-15T00:21:10.004Z,12
2017-06-15T00:22:10.703Z,12
2017-06-15T00:23:11.496Z,12
2017-06-15T00:24:12.476Z,12
2017-06-15T00:25:13.195Z,12
2017-06-15T00:26:13.902Z,12
2017-06-15T00:27:14.591Z,12
2017-06-15T00:28:15.387Z,12
2017-06-15T00:29:16.125Z,12
2017-06-15T00:30:17.046Z,12
2017-06-15T00:31:17.732Z,12
2017-06-15T00:32:18.425Z,12
2017-06-15T00:33:19.112Z,12
2017-06-15T00:34:19.817Z,12
2017-06-15T00:35:20.551Z,12
2017-06-15T00:36:21.549Z,12
2017-06-15T00:37:22.293Z,12
2017-06-15T00:38:23.014Z,12
2017-06-15T00:39:23.703Z,12
2017-06-15T00:40:24.464Z,12
2017-06-15T00:41:25.226Z,12
2017-06-15T00:42:26.216Z,12
2017-06-15T00:43:26.990Z,12
2017-06-15T00:44:27.686Z,12
2017-06-15T00:45:28.375Z,12
2017-06-15T00:46:29.058Z,12
2017-06-15T00:47:29.796Z,12
2017-06-15T00:48:30.891Z,12
2017-06-15T00:49:31.581Z,12
2017-06-15T00:50:32.292Z,12
2017-06-15T00:51:33.020Z,12
2017-06-15T00:52:33.713Z,12
2017-06-15T00:53:34.390Z,12
2017-06-15T00:54:35.392Z,12
2017-06-15T00:55:36.130Z,12
2017-06-15T00:56:36.808Z,12
2017-06-15T00:57:37.669Z,12
2017-06-15T00:58:38.412Z,12
2017-06-15T00:59:39.103Z,12
2017-06-15T01:00:40.138Z,12
2017-06-15T01:01:40.887Z,12
2017-06-15T01:02:41.830Z,12
2017-06-15T01:03:42.509Z,12
2017-06-15T01:04:43.238Z,12
2017-06-15T01:05:43.992Z,12
2017-06-15T01:06:45.024Z,12
2017-06-15T01:07:45.722Z,12
2017-06-15T01:08:46.406Z,12
2017-06-15T01:09:47.122Z,12
2017-06-15T01:10:47.843Z,12
2017-06-15T01:11:48.529Z,12
2017-06-15T01:12:49.519Z,12
2017-06-15T01:13:50.334Z,12
2017-06-15T01:14:51.075Z,12
2017-06-15T01:15:51.764Z,12
2017-06-15T01:16:52.461Z,12
2017-06-15T01:17:53.192Z,12
2017-06-15T01:18:54.195Z,12
2017-06-15T01:19:55.066Z,12
2017-06-15T01:20:55.760Z,12
2017-06-15T01:21:56.448Z,12
2017-06-15T01:22:57.134Z,12
2017-06-15T01:23:57.821Z,12
2017-06-15T01:24:58.514Z,12
2017-06-15T01:26:01.398Z,12
2017-06-15T01:27:03.084Z,12
2017-06-15T01:28:03.775Z,4
2017-06-15T01:29:04.514Z,4
2017-06-15T01:30:05.251Z,0
2017-06-15T01:31:05.932Z,0
2017-06-15T01:32:06.876Z,0
2017-06-15T01:33:07.568Z,0
2017-06-15T01:34:08.248Z,0
2017-06-15T01:35:09.132Z,0
2017-06-15T01:36:09.874Z,0
2017-06-15T01:37:10.555Z,0
2017-06-15T01:38:11.560Z,0
2017-06-15T01:39:12.235Z,0
2017-06-15T01:40:13.011Z,0
2017-06-15T01:41:13.705Z,0
2017-06-15T01:42:14.395Z,0
2017-06-15T01:43:15.079Z,0
2017-06-15T01:44:16.068Z,0
2017-06-15T01:45:16.960Z,0
2017-06-15T01:46:17.642Z,0
2017-06-15T01:47:18.322Z,0
2017-06-15T01:48:19.063Z,0
2017-06-15T01:49:19.766Z,0
2017-06-15T01:50:20.827Z,0
2017-06-15T01:51:21.787Z,0
2017-06-15T01:52:22.478Z,0
2017-06-15T01:53:23.224Z,0
2017-06-15T01:54:23.943Z,0
2017-06-15T01:55:24.628Z,0
2017-06-15T01:56:25.712Z,0
2017-06-15T01:57:26.463Z,0
2017-06-15T01:58:27.154Z,0
2017-06-15T01:59:27.830Z,0
2017-06-15T02:00:28.525Z,0
2017-06-15T02:01:29.253Z,0
2017-06-15T02:02:30.245Z,0
2017-06-15T02:03:30.927Z,0
2017-06-15T02:04:31.613Z,0
2017-06-15T02:05:32.305Z,0
2017-06-15T02:06:33.035Z,0
2017-06-15T02:07:33.724Z,0
2017-06-15T02:08:34.665Z,0
2017-06-15T02:09:35.350Z,0
2017-06-15T02:10:36.039Z,0
2017-06-15T02:11:36.768Z,0
2017-06-15T02:12:37.510Z,0
2017-06-15T02:13:38.190Z,0
2017-06-15T02:14:39.181Z,0
2017-06-15T02:15:39.874Z,0
2017-06-15T02:16:40.642Z,0
2017-06-15T02:17:41.381Z,0
2017-06-15T02:18:42.030Z,0
2017-06-15T02:19:42.715Z,0
2017-06-15T02:20:43.393Z,0
2017-06-15T02:21:44.387Z,0
2017-06-15T02:22:45.078Z,0
2017-06-15T02:23:45.751Z,0
2017-06-15T02:24:46.438Z,0
2017-06-15T02:25:47.180Z,0
2017-06-15T02:26:47.865Z,0
2017-06-15T02:27:48.792Z,0
2017-06-15T02:28:49.488Z,0
2017-06-15T02:29:50.170Z,0
2017-06-15T02:30:50.851Z,0
2017-06-15T02:31:51.541Z,0
2017-06-15T02:32:52.270Z,0
2017-06-15T02:33:53.202Z,0
2017-06-15T02:34:53.892Z,0
2017-06-15T02:35:54.923Z,0
2017-06-15T02:36:55.659Z,0
2017-06-15T02:37:56.393Z,0
2017-06-15T02:38:57.087Z,0
2017-06-15T02:39:58.022Z,0
2017-06-15T02:40:58.808Z,0
2017-06-15T02:41:59.483Z,0
2017-06-15T02:43:00.173Z,4
2017-06-15T02:44:00.914Z,4
2017-06-15T02:45:01.596Z,4
2017-06-15T02:46:02.784Z,4
2017-06-15T02:47:03.461Z,4
2017-06-15T02:48:04.201Z,4
2017-06-15T02:49:04.883Z,4
2017-06-15T02:50:05.621Z,4
2017-06-15T02:51:06.357Z,4
2017-06-15T02:52:07.047Z,8
2017-06-15T02:53:07.980Z,8
2017-06-15T02:54:08.671Z,8
2017-06-15T02:55:09.349Z,12
2017-06-15T02:56:10.107Z,12
2017-06-15T02:57:10.795Z,12
2017-06-15T02:58:11.530Z,16
2017-06-15T02:59:12.456Z,20
2017-06-15T03:00:13.171Z,20
2017-06-15T03:01:14.042Z,24
2017-06-15T03:02:14.716Z,24
2017-06-15T03:03:15.405Z,24
2017-06-15T03:04:16.139Z,32
2017-06-15T03:05:17.146Z,32
2017-06-15T03:06:17.983Z,36
2017-06-15T03:07:18.673Z,36
2017-06-15T03:08:19.366Z,40
2017-06-15T03:09:20.057Z,48
2017-06-15T03:10:20.790Z,48
2017-06-15T03:11:21.733Z,52
2017-06-15T03:12:22.462Z,56
2017-06-15T03:13:23.240Z,60
2017-06-15T03:14:23.927Z,64
2017-06-15T03:15:24.674Z,72
2017-06-15T03:16:25.351Z,80
2017-06-15T03:17:26.340Z,84
2017-06-15T03:18:27.023Z,92
2017-06-15T03:19:27.806Z,100
2017-06-15T03:20:28.501Z,104
2017-06-15T03:21:29.180Z,112
2017-06-15T03:22:29.874Z,120
2017-06-15T03:23:30.609Z,132
2017-06-15T03:24:31.604Z,140
2017-06-15T03:25:32.327Z,156
2017-06-15T03:26:33.034Z,164
2017-06-15T03:27:33.751Z,176
2017-06-15T03:28:34.493Z,188
2017-06-15T03:29:35.275Z,200
2017-06-15T03:30:36.331Z,212
2017-06-15T03:31:37.012Z,228
2017-06-15T03:32:37.700Z,240
2017-06-15T03:33:38.388Z,256
2017-06-15T03:34:39.121Z,272
2017-06-15T03:35:39.871Z,288
2017-06-15T03:36:40.847Z,304
2017-06-15T03:37:41.544Z,324
2017-06-15T03:38:42.228Z,340
2017-06-15T03:39:42.960Z,360
2017-06-15T03:40:43.708Z,376
2017-06-15T03:41:44.393Z,396
2017-06-15T03:42:45.333Z,416
2017-06-15T03:43:46.015Z,428
2017-06-15T03:44:46.754Z,448
2017-06-15T03:45:47.508Z,468
2017-06-15T03:46:48.219Z,480
2017-06-15T03:47:48.910Z,496
2017-06-15T03:48:49.839Z,516
2017-06-15T03:49:50.540Z,532
2017-06-15T03:50:51.216Z,548
2017-06-15T03:51:51.901Z,564
2017-06-15T03:52:52.601Z,584
2017-06-15T03:53:53.299Z,600
2017-06-15T03:54:54.434Z,620
2017-06-15T03:55:55.231Z,632
2017-06-15T03:56:55.950Z,652
2017-06-15T03:57:56.637Z,672
2017-06-15T03:58:57.325Z,688
2017-06-15T03:59:58.067Z,704
2017-06-15T04:00:59.049Z,712
2017-06-15T04:01:59.839Z,724
2017-06-15T04:03:00.576Z,736
2017-06-15T04:04:01.270Z,744
2017-06-15T04:05:01.955Z,752
2017-06-15T04:06:02.642Z,760
2017-06-15T04:07:03.664Z,768
2017-06-15T04:08:04.401Z,780
2017-06-15T04:09:05.086Z,792
2017-06-15T04:10:05.781Z,804
2017-06-15T04:11:06.518Z,816
2017-06-15T04:12:07.556Z,828
2017-06-15T04:13:08.488Z,840
2017-06-15T04:14:09.241Z,852
2017-06-15T04:15:09.961Z,856
2017-06-15T04:16:10.657Z,864
2017-06-15T04:17:11.456Z,868
2017-06-15T04:18:12.129Z,872
2017-06-15T04:19:13.066Z,876
2017-06-15T04:20:13.760Z,884
2017-06-15T04:21:14.450Z,900
2017-06-15T04:22:15.140Z,916
2017-06-15T04:23:15.879Z,936
2017-06-15T04:24:16.565Z,952
2017-06-15T04:25:17.523Z,968
2017-06-15T04:26:18.198Z,988
2017-06-15T04:27:18.980Z,1000
2017-06-15T04:28:19.668Z,1016
2017-06-15T04:29:20.409Z,1024
2017-06-15T04:30:21.450Z,1028
2017-06-15T04:31:22.442Z,1032
2017-06-15T04:32:23.128Z,1044
2017-06-15T04:33:23.813Z,1056
2017-06-15T04:34:24.555Z,1064
2017-06-15T04:35:25.341Z,1076
2017-06-15T04:36:26.032Z,1092
2017-06-15T04:37:26.719Z,1108
2017-06-15T04:38:27.759Z,1128
2017-06-15T04:39:28.452Z,1144
2017-06-15T04:40:29.152Z,1160
2017-06-15T04:41:29.829Z,1176
2017-06-15T04:42:30.514Z,1188
2017-06-15T04:43:31.212Z,1204
2017-06-15T04:44:32.204Z,1224
2017-06-15T04:45:33.082Z,1244
2017-06-15T04:46:33.768Z,1252
2017-06-15T04:47:34.455Z,1268
2017-06-15T04:48:35.151Z,1284
2017-06-15T04:49:35.826Z,1300
2017-06-15T04:50:37.178Z,1320
2017-06-15T04:51:37.869Z,1340
2017-06-15T04:52:38.556Z,1352
2017-06-15T04:53:39.246Z,1368
2017-06-15T04:54:39.939Z,1380
2017-06-15T04:55:40.621Z,1384
2017-06-15T04:56:41.758Z,1400
2017-06-15T04:57:42.502Z,1408
2017-06-15T04:58:43.197Z,1420
2017-06-15T04:59:43.881Z,1432
2017-06-15T05:00:44.618Z,1444
2017-06-15T05:01:45.430Z,1460
2017-06-15T05:02:46.349Z,1472
2017-06-15T05:03:47.048Z,1484
2017-06-15T05:04:47.739Z,1492
2017-06-15T05:05:48.429Z,1496
2017-06-15T05:06:49.285Z,1504
2017-06-15T05:07:49.975Z,1508
2017-06-15T05:08:50.664Z,1520
2017-06-15T05:09:51.659Z,1512
2017-06-15T05:10:52.651Z,1528
2017-06-15T05:11:53.391Z,1552
2017-06-15T05:12:54.076Z,1564
2017-06-15T05:13:54.861Z,1592
2017-06-15T05:14:55.591Z,1608
2017-06-15T05:15:56.530Z,1632
2017-06-15T05:16:57.430Z,1648
2017-06-15T05:17:58.167Z,1664
2017-06-15T05:18:58.849Z,1680
2017-06-15T05:19:59.552Z,1688
2017-06-15T05:21:00.283Z,1692
2017-06-15T05:22:00.969Z,1696
2017-06-15T05:23:01.960Z,1696
2017-06-15T05:24:02.731Z,1696
2017-06-15T05:25:03.390Z,1688
2017-06-15T05:26:04.078Z,1684
2017-06-15T05:27:04.872Z,1676
2017-06-15T05:28:05.565Z,1672
2017-06-15T05:29:06.556Z,1672
2017-06-15T05:30:07.254Z,1676
2017-06-15T05:31:07.983Z,1676
2017-06-15T05:32:08.876Z,1688
2017-06-15T05:33:09.574Z,1700
2017-06-15T05:34:10.261Z,1720
2017-06-15T05:35:11.210Z,1728
2017-06-15T05:36:11.886Z,1740
2017-06-15T05:37:12.650Z,1752
2017-06-15T05:38:13.340Z,1768
2017-06-15T05:39:14.028Z,1780
2017-06-15T05:40:14.725Z,1792
2017-06-15T05:41:15.816Z,1804
2017-06-15T05:42:16.518Z,1820
2017-06-15T05:43:17.194Z,1840
2017-06-15T05:44:17.936Z,1860
2017-06-15T05:45:18.643Z,1872
2017-06-15T05:46:19.520Z,1888
2017-06-15T05:47:20.459Z,1900
2017-06-15T05:48:21.206Z,1908
2017-06-15T05:49:21.921Z,1916
2017-06-15T05:50:22.629Z,1912
2017-06-15T05:51:23.319Z,1920
2017-06-15T05:52:24.032Z,1936
2017-06-15T05:53:25.594Z,1960
2017-06-15T05:54:26.534Z,1980
2017-06-15T05:55:27.225Z,2020
2017-06-15T05:56:27.938Z,2044
2017-06-15T05:57:28.608Z,2056
2017-06-15T05:58:29.392Z,2072
2017-06-15T05:59:30.089Z,2084
2017-06-15T06:00:31.093Z,2104
2017-06-15T06:01:31.764Z,2132
2017-06-15T06:02:32.447Z,2156
2017-06-15T06:03:33.298Z,2188
2017-06-15T06:04:33.991Z,2228
2017-06-15T06:05:34.688Z,2264
2017-06-15T06:06:35.381Z,2296
2017-06-15T06:07:36.685Z,2336
2017-06-15T06:08:37.463Z,2372
2017-06-15T06:09:38.251Z,2408
2017-06-15T06:10:38.942Z,2448
2017-06-15T06:11:39.633Z,2492
2017-06-15T06:12:40.336Z,2496
2017-06-15T06:13:41.336Z,2576
2017-06-15T06:14:42.048Z,2656
2017-06-15T06:15:42.745Z,2708
2017-06-15T06:16:43.428Z,2752
2017-06-15T06:17:44.132Z,2796
2017-06-15T06:18:44.815Z,2824
2017-06-15T06:19:45.864Z,2840
2017-06-15T06:20:46.558Z,2860
2017-06-15T06:21:47.242Z,2868
2017-06-15T06:22:47.945Z,2884
2017-06-15T06:23:48.621Z,2872
2017-06-15T06:24:49.464Z,2848
2017-06-15T06:25:50.459Z,2900
2017-06-15T06:26:51.226Z,2956
2017-06-15T06:27:51.884Z,2976
2017-06-15T06:28:52.580Z,2980
2017-06-15T06:29:53.324Z,2984
2017-06-15T06:30:54.055Z,2964
2017-06-15T06:31:55.115Z,2956
2017-06-15T06:32:55.844Z,2956
2017-06-15T06:33:56.591Z,2956
2017-06-15T06:34:57.447Z,2756
2017-06-15T06:35:58.115Z,2744
2017-06-15T06:36:58.860Z,2736
2017-06-15T06:37:59.807Z,2728
2017-06-15T06:39:00.483Z,2728
2017-06-15T06:40:01.313Z,2740
2017-06-15T06:42:17.630Z,2744
2017-06-15T06:43:18.290Z,2748
2017-06-15T06:44:19.283Z,2756
2017-06-15T06:45:20.121Z,2764
2017-06-15T06:46:20.810Z,2748
2017-06-15T06:47:21.564Z,2728
2017-06-15T06:48:22.265Z,2696
2017-06-15T06:49:22.987Z,2684
2017-06-15T06:50:23.933Z,2692
2017-06-15T06:51:24.721Z,2704
2017-06-15T06:52:25.428Z,2712
2017-06-15T06:53:26.114Z,2708
2017-06-15T06:54:26.794Z,2700
2017-06-15T06:55:27.529Z,2672
2017-06-15T06:56:28.534Z,2640
2017-06-15T06:57:29.220Z,2600
2017-06-15T06:58:29.962Z,2572
2017-06-15T06:59:30.646Z,2536
2017-06-15T07:00:31.336Z,2508
2017-06-15T07:01:32.032Z,2488
2017-06-15T07:02:32.981Z,2484
2017-06-15T07:03:33.668Z,2492
2017-06-15T07:04:34.353Z,2516
2017-06-15T07:05:35.050Z,2564
2017-06-15T07:06:35.744Z,2628
2017-06-15T07:07:36.433Z,2708
2017-06-15T07:08:37.478Z,2784
2017-06-15T07:09:38.174Z,2864
2017-06-15T07:10:38.855Z,2928
2017-06-15T07:11:39.595Z,3000
2017-06-15T07:12:40.286Z,3060
2017-06-15T07:13:41.104Z,3076
2017-06-15T07:14:41.788Z,3076
2017-06-15T07:15:42.841Z,3080
2017-06-15T07:16:43.746Z,3124
2017-06-15T07:17:44.483Z,3160
2017-06-15T07:18:45.149Z,3176
2017-06-15T07:19:45.843Z,3188
2017-06-15T07:20:46.531Z,3208
2017-06-15T07:21:47.279Z,3232
2017-06-15T07:22:47.968Z,3236
2017-06-15T07:23:48.909Z,3268
2017-06-15T07:24:49.607Z,3240
2017-06-15T07:25:50.291Z,3280
2017-06-15T07:26:50.980Z,3336
2017-06-15T07:27:51.979Z,3364
2017-06-15T07:28:52.815Z,3396
2017-06-15T07:29:53.519Z,3428
2017-06-15T07:30:54.284Z,3472
2017-06-15T07:31:55.070Z,3516
2017-06-15T07:32:55.838Z,3568
2017-06-15T07:33:56.808Z,3576
2017-06-15T07:34:57.522Z,3528
2017-06-15T07:35:58.198Z,3500
2017-06-15T07:36:58.935Z,3464
2017-06-15T07:37:59.628Z,3468
2017-06-15T07:39:00.394Z,3416
2017-06-15T07:40:01.413Z,3344
2017-06-15T07:41:02.164Z,3280
2017-06-15T07:42:02.907Z,3224
2017-06-15T07:43:03.660Z,3152
2017-06-15T07:44:04.334Z,3096
2017-06-15T07:45:05.027Z,3056
2017-06-15T07:46:05.742Z,3048
2017-06-15T07:47:06.720Z,3076
2017-06-15T07:48:07.451Z,3168
2017-06-15T07:49:08.150Z,3236
2017-06-15T07:50:08.925Z,3380
2017-06-15T07:51:09.605Z,3496
2017-06-15T07:52:10.317Z,3628
2017-06-15T07:53:11.287Z,3816
2017-06-15T07:54:11.977Z,4040
2017-06-15T07:55:12.685Z,4264
2017-06-15T07:56:13.392Z,4476
2017-06-15T07:57:14.060Z,4668
2017-06-15T07:58:14.783Z,4844
2017-06-15T07:59:15.489Z,4960
2017-06-15T08:00:16.233Z,5048
2017-06-15T08:01:16.926Z,5116
2017-06-15T08:02:17.619Z,5120
2017-06-15T08:03:18.403Z,5088
2017-06-15T08:04:19.352Z,4952
2017-06-15T08:05:20.093Z,4796
2017-06-15T08:06:20.785Z,4604
2017-06-15T08:07:21.525Z,4436
2017-06-15T08:08:22.534Z,4376
2017-06-15T08:09:23.235Z,4212
2017-06-15T08:10:23.979Z,4100
2017-06-15T08:11:24.681Z,3960
2017-06-15T08:12:25.366Z,3936
2017-06-15T08:13:26.265Z,3728
2017-06-15T08:14:26.972Z,3512
2017-06-15T08:15:27.698Z,3212
2017-06-15T08:16:28.703Z,3008
2017-06-15T08:17:29.383Z,2868
2017-06-15T08:18:30.095Z,2804
2017-06-15T08:19:30.782Z,2832
2017-06-15T08:20:31.470Z,2900
2017-06-15T08:21:32.171Z,2932
2017-06-15T08:22:32.860Z,2972
2017-06-15T08:23:33.555Z,3004
2017-06-15T08:24:34.255Z,3064
2017-06-15T08:25:34.934Z,3064
2017-06-15T08:26:35.740Z,3044
2017-06-15T08:27:36.494Z,3048
2017-06-15T08:28:37.509Z,3092
2017-06-15T08:29:38.227Z,3220
2017-06-15T08:30:39.013Z,3420
2017-06-15T08:31:39.889Z,3552
2017-06-15T08:32:40.643Z,3540
2017-06-15T08:33:41.473Z,3440
2017-06-15T08:34:42.420Z,3284
2017-06-15T08:35:43.117Z,3144
2017-06-15T08:36:43.805Z,3128
2017-06-15T08:37:44.798Z,3152
2017-06-15T08:38:45.527Z,3192
2017-06-15T08:39:46.220Z,3012
2017-06-15T08:40:47.222Z,2756
2017-06-15T08:41:47.963Z,2600
2017-06-15T08:42:48.968Z,2596
2017-06-15T08:43:49.728Z,2520
2017-06-15T08:44:50.398Z,2496
2017-06-15T08:45:51.096Z,2408
2017-06-15T08:46:51.797Z,2328
2017-06-15T08:47:52.748Z,2272
2017-06-15T08:48:53.592Z,2192
2017-06-15T08:49:54.302Z,2196
2017-06-15T08:50:54.985Z,2188
2017-06-15T08:51:55.667Z,2140
2017-06-15T08:52:56.375Z,2080
2017-06-15T08:53:57.502Z,1988
2017-06-15T08:54:58.199Z,1948
2017-06-15T08:55:58.892Z,1924
2017-06-15T08:56:59.584Z,1892
2017-06-15T08:58:00.333Z,1908
2017-06-15T08:59:01.096Z,1896
2017-06-15T09:00:01.828Z,1924
2017-06-15T09:01:02.763Z,2008
2017-06-15T09:02:03.451Z,2000
2017-06-15T09:03:04.141Z,1972
2017-06-15T09:04:04.890Z,2040
2017-06-15T09:05:05.591Z,2112
2017-06-15T09:06:06.321Z,2120
2017-06-15T09:07:07.320Z,2128
2017-06-15T09:08:08.020Z,2144
2017-06-15T09:09:08.705Z,2156
2017-06-15T09:10:09.449Z,2164
2017-06-15T09:11:10.191Z,2172
2017-06-15T09:12:10.883Z,2188
2017-06-15T09:13:11.871Z,2200
2017-06-15T09:14:12.586Z,2200
2017-06-15T09:15:13.322Z,2220
2017-06-15T09:16:14.222Z,2244
2017-06-15T09:17:14.929Z,2260
2017-06-15T09:18:15.683Z,2292
2017-06-15T09:19:16.675Z,2332
2017-06-15T09:20:17.396Z,2384
2017-06-15T09:21:18.083Z,2576
2017-06-15T09:22:18.895Z,2688
2017-06-15T09:23:19.572Z,2736
2017-06-15T09:24:20.266Z,2816
2017-06-15T09:25:21.336Z,2912
2017-06-15T09:26:22.078Z,3096
2017-06-15T09:27:22.831Z,3128
2017-06-15T09:28:23.520Z,3072
2017-06-15T09:29:24.220Z,2916
2017-06-15T09:30:24.922Z,2740
2017-06-15T09:31:25.678Z,2512
2017-06-15T09:32:26.751Z,2276
2017-06-15T09:33:27.519Z,2256
2017-06-15T09:34:28.195Z,2152
2017-06-15T09:35:28.908Z,2180
2017-06-15T09:36:29.649Z,2204
2017-06-15T09:37:30.446Z,2220
2017-06-15T09:38:31.491Z,2260
2017-06-15T09:39:32.196Z,2280
2017-06-15T09:40:32.883Z,2300
2017-06-15T09:41:33.642Z,2384
2017-06-15T09:42:34.345Z,2456
2017-06-15T09:43:35.033Z,2596
2017-06-15T09:44:36.041Z,2844
2017-06-15T09:45:36.783Z,3232
2017-06-15T09:46:37.472Z,3728
2017-06-15T09:47:38.265Z,4192
2017-06-15T09:48:39.007Z,4580
2017-06-15T09:49:39.777Z,4868
2017-06-15T09:50:40.708Z,5068
2017-06-15T09:51:41.440Z,5168
2017-06-15T09:52:42.236Z,5228
2017-06-15T09:53:42.926Z,5432
2017-06-15T09:54:43.766Z,5332
2017-06-15T09:55:44.474Z,5028
2017-06-15T09:56:45.413Z,4992
2017-06-15T09:57:46.450Z,5000
2017-06-15T09:58:47.155Z,5068
2017-06-15T09:59:47.915Z,5156
2017-06-15T10:00:48.606Z,5084
2017-06-15T10:01:49.350Z,4852
2017-06-15T10:02:50.495Z,4664
2017-06-15T10:03:51.492Z,4636
2017-06-15T10:04:52.170Z,4736
2017-06-15T10:05:52.874Z,4708
2017-06-15T10:06:53.614Z,4440
2017-06-15T10:07:54.454Z,4068
2017-06-15T10:08:55.401Z,3712
2017-06-15T10:09:56.164Z,3524
2017-06-15T10:10:56.873Z,3560
2017-06-15T10:11:57.620Z,3764
2017-06-15T10:12:58.361Z,4044
2017-06-15T10:13:59.120Z,4144
2017-06-15T10:14:59.816Z,4164
2017-06-15T10:16:00.905Z,4236
2017-06-15T10:17:01.602Z,4580
2017-06-15T10:18:02.296Z,5088
2017-06-15T10:19:02.985Z,5616
2017-06-15T10:20:03.682Z,6088
2017-06-15T10:21:04.525Z,6376
2017-06-15T10:22:05.788Z,6496
2017-06-15T10:23:06.523Z,6444
2017-06-15T10:24:07.275Z,6156
2017-06-15T10:25:08.011Z,5592
2017-06-15T10:26:08.758Z,4988
2017-06-15T10:27:09.495Z,4516
2017-06-15T10:28:10.431Z,4188
2017-06-15T10:29:11.196Z,3992
2017-06-15T10:30:11.880Z,3760
2017-06-15T10:31:12.627Z,3428
2017-06-15T10:32:13.330Z,2988
2017-06-15T10:33:14.243Z,2512
2017-06-15T10:34:15.229Z,2240
2017-06-15T10:35:15.929Z,2352
2017-06-15T10:36:16.621Z,2384
2017-06-15T10:37:17.310Z,2380
2017-06-15T10:38:18.254Z,2388
2017-06-15T10:39:18.953Z,2392
2017-06-15T10:40:20.316Z,2396
2017-06-15T10:41:21.114Z,2400
2017-06-15T10:42:21.828Z,2396
2017-06-15T10:43:22.495Z,2408
2017-06-15T10:44:23.234Z,2412
2017-06-15T10:45:23.926Z,2420
2017-06-15T10:46:24.918Z,2424
2017-06-15T10:47:25.636Z,2432
2017-06-15T10:48:26.320Z,2444
2017-06-15T10:49:27.014Z,2456
2017-06-15T10:50:27.859Z,2468
2017-06-15T10:51:28.566Z,2488
2017-06-15T10:52:29.293Z,2504
2017-06-15T10:53:29.991Z,2520
2017-06-15T10:54:30.727Z,2536
2017-06-15T10:55:31.556Z,2548
2017-06-15T10:56:32.247Z,2556
2017-06-15T10:57:32.985Z,2568
2017-06-15T10:58:33.962Z,2580
2017-06-15T10:59:34.629Z,2592
2017-06-15T11:00:35.367Z,2608
2017-06-15T11:01:36.084Z,2620
2017-06-15T11:02:36.768Z,2640
2017-06-15T11:03:37.537Z,2660
2017-06-15T11:04:38.474Z,2680
2017-06-15T11:05:39.169Z,2696
2017-06-15T11:06:39.877Z,2720
2017-06-15T11:07:40.564Z,2744
2017-06-15T11:08:41.497Z,2780
2017-06-15T11:09:43.502Z,2824
2017-06-15T11:10:44.489Z,2872
2017-06-15T11:11:45.160Z,2912
2017-06-15T11:12:45.898Z,2948
2017-06-15T11:13:46.648Z,2960
2017-06-15T11:14:47.398Z,2956
2017-06-15T11:15:48.087Z,2952
2017-06-15T11:16:49.022Z,2952
2017-06-15T11:17:49.716Z,2968
2017-06-15T11:18:50.523Z,3000
2017-06-15T11:19:51.211Z,3036
2017-06-15T11:20:51.905Z,3064
2017-06-15T11:21:52.656Z,3048
2017-06-15T11:22:53.741Z,3028
2017-06-15T11:23:54.436Z,3032
2017-06-15T11:24:55.237Z,3056
2017-06-15T11:25:55.945Z,3088
2017-06-15T11:26:56.646Z,3120
2017-06-15T11:27:57.334Z,3156
2017-06-15T11:28:58.590Z,3188
2017-06-15T11:29:59.269Z,3212
2017-06-15T11:30:59.974Z,3240
2017-06-15T11:32:00.771Z,3276
2017-06-15T11:33:01.465Z,3308
2017-06-15T11:34:02.232Z,3332
2017-06-15T11:35:03.192Z,3376
2017-06-15T11:36:03.959Z,3424
2017-06-15T11:37:04.705Z,3480
2017-06-15T11:38:05.571Z,3560
2017-06-15T11:39:06.288Z,3624
2017-06-15T11:40:06.971Z,3692
2017-06-15T11:41:07.655Z,3752
2017-06-15T11:42:08.705Z,3808
2017-06-15T11:43:09.494Z,3868
2017-06-15T11:44:10.213Z,3928
2017-06-15T11:45:10.916Z,4004
2017-06-15T11:46:11.607Z,4128
2017-06-15T11:47:12.307Z,4300
2017-06-15T11:48:13.000Z,4528
2017-06-15T11:49:13.741Z,4728
2017-06-15T11:50:14.456Z,4860
2017-06-15T11:51:15.132Z,4804
2017-06-15T11:52:15.883Z,4800
2017-06-15T11:53:16.580Z,4920
2017-06-15T11:54:17.712Z,5128
2017-06-15T11:55:18.423Z,5468
2017-06-15T11:56:19.136Z,5836
2017-06-15T11:57:19.793Z,6032
2017-06-15T11:58:20.506Z,6088
2017-06-15T11:59:21.662Z,6692
2017-06-15T12:00:22.657Z,7100
2017-06-15T12:01:23.348Z,7208
2017-06-15T12:02:24.044Z,7708
2017-06-15T12:03:24.736Z,7768
2017-06-15T12:04:25.489Z,7880
2017-06-15T12:05:26.232Z,8036
2017-06-15T12:06:26.928Z,8392
2017-06-15T12:07:27.621Z,8732
2017-06-15T12:08:28.373Z,9032
2017-06-15T12:09:29.130Z,8852
2017-06-15T12:10:29.806Z,8508
2017-06-15T12:11:30.720Z,8552
2017-06-15T12:12:31.707Z,8380
2017-06-15T12:13:32.456Z,8136
2017-06-15T12:14:33.144Z,7708
2017-06-15T12:15:33.843Z,7344
2017-06-15T12:16:34.601Z,7028
2017-06-15T12:17:35.632Z,6796
2017-06-15T12:18:36.696Z,6576
2017-06-15T12:19:37.384Z,6484
2017-06-15T12:20:38.091Z,6816
2017-06-15T12:21:38.768Z,7252
2017-06-15T12:22:39.540Z,7752
2017-06-15T12:23:40.342Z,8132
2017-06-15T12:24:41.270Z,8348
2017-06-15T12:25:42.024Z,8412
2017-06-15T12:26:42.785Z,8420
2017-06-15T12:27:43.477Z,8684
2017-06-15T12:28:44.316Z,9208
2017-06-15T12:29:45.044Z,9860
2017-06-15T12:30:46.093Z,10420
2017-06-15T12:31:46.798Z,11048
2017-06-15T12:32:47.533Z,11852
2017-06-15T12:33:48.308Z,12848
2017-06-15T12:34:48.983Z,13444
2017-06-15T12:35:49.705Z,13396
2017-06-15T12:36:50.707Z,13024
2017-06-15T12:37:51.406Z,12508
2017-06-15T12:38:52.190Z,12348
2017-06-15T12:39:52.893Z,12232
2017-06-15T12:40:53.792Z,12204
2017-06-15T12:41:54.513Z,12136
2017-06-15T12:42:55.442Z,11932
2017-06-15T12:43:56.151Z,11756
2017-06-15T12:44:56.831Z,11916
2017-06-15T12:45:57.580Z,12380
2017-06-15T12:46:58.320Z,12236
2017-06-15T12:47:58.998Z,11804
2017-06-15T12:48:59.746Z,12428
2017-06-15T12:50:00.493Z,12632
2017-06-15T12:51:01.238Z,12496
2017-06-15T12:52:01.939Z,12796
2017-06-15T12:53:02.638Z,13524
2017-06-15T12:54:03.345Z,12968
2017-06-15T12:55:04.349Z,13448
2017-06-15T12:56:05.094Z,13672
2017-06-15T12:57:05.797Z,13732
2017-06-15T12:58:06.547Z,13904
2017-06-15T12:59:07.249Z,13744
2017-06-15T13:00:07.943Z,12888
2017-06-15T13:01:08.700Z,13012
2017-06-15T13:02:09.413Z,12620
2017-06-15T13:03:10.094Z,12480
2017-06-15T13:04:10.848Z,11736
2017-06-15T13:05:11.603Z,10292
2017-06-15T13:06:12.378Z,10316
2017-06-15T13:07:13.389Z,10740
2017-06-15T13:08:14.086Z,10144
2017-06-15T13:09:14.777Z,9928
2017-06-15T13:10:15.534Z,9632
2017-06-15T13:11:16.365Z,8376
2017-06-15T13:12:17.338Z,7968
2017-06-15T13:13:18.418Z,7624
2017-06-15T13:14:19.111Z,7200
2017-06-15T13:15:19.856Z,6780
2017-06-15T13:16:21.302Z,6480
2017-06-15T13:17:22.156Z,6220
2017-06-15T13:18:22.852Z,6068
2017-06-15T13:19:23.905Z,6028
2017-06-15T13:20:24.659Z,6080
2017-06-15T13:21:25.355Z,5932
2017-06-15T13:22:26.199Z,5736
2017-06-15T13:23:26.940Z,5684
2017-06-15T13:24:27.676Z,5656
2017-06-15T13:25:28.423Z,5700
2017-06-15T13:26:29.132Z,5992
2017-06-15T13:27:29.816Z,6816
2017-06-15T13:28:30.516Z,7524
2017-06-15T13:29:31.252Z,8280
2017-06-15T13:30:31.957Z,8336
2017-06-15T13:31:32.647Z,8536
2017-06-15T13:32:33.656Z,8900
2017-06-15T13:33:34.361Z,8820
2017-06-15T13:34:35.242Z,7912
2017-06-15T13:35:35.991Z,7672
2017-06-15T13:36:36.676Z,8192
2017-06-15T13:37:37.656Z,8028
2017-06-15T13:38:38.659Z,7384
2017-06-15T13:39:39.364Z,6344
2017-06-15T13:40:40.110Z,5392
2017-06-15T13:41:40.804Z,4560
2017-06-15T13:42:41.508Z,3736
2017-06-15T13:43:42.267Z,3020
2017-06-15T13:44:43.260Z,2544
2017-06-15T13:45:43.994Z,2176
2017-06-15T13:46:44.736Z,1936
2017-06-15T13:47:45.403Z,1820